createdAt,value
2023-04-12T00:02:55.152Z,3.07
2023-04-12T00:05:57.424Z,2.28
2023-04-12T00:09:00.166Z,3.22
2023-04-12T00:12:02.858Z,3.33
2023-04-12T00:15:06.723Z,3.72
2023-04-12T00:18:10.068Z,3.13
2023-04-12T00:21:12.452Z,4.22
2023-04-12T00:24:14.864Z,3.97
2023-04-12T00:27:16.891Z,3.38
2023-04-12T00:30:18.919Z,2.92
2023-04-12T00:33:21.000Z,3.87
2023-04-12T00:36:23.067Z,4.25
2023-04-12T00:39:25.004Z,3.05
2023-04-12T00:42:27.769Z,3.17
2023-04-12T00:45:29.926Z,4.10
2023-04-12T00:48:32.271Z,3.83
2023-04-12T00:51:34.360Z,4.18
2023-04-12T00:54:36.454Z,3.58
2023-04-12T00:57:39.293Z,3.92
2023-04-12T01:00:41.504Z,5.57
2023-04-12T01:03:43.957Z,3.40
2023-04-12T01:06:46.706Z,3.63
2023-04-12T01:09:59.445Z,3.38
2023-04-12T01:13:01.673Z,5.60
2023-04-12T01:16:06.145Z,3.75
2023-04-12T01:19:13.834Z,6.22
2023-04-12T01:22:32.820Z,3.45
2023-04-12T01:25:35.608Z,3.55
2023-04-12T01:28:41.529Z,4.03
2023-04-12T01:31:54.482Z,4.63
2023-04-12T01:34:58.384Z,5.73
2023-04-12T01:38:00.510Z,5.22
2023-04-12T01:41:02.568Z,4.03
2023-04-12T01:44:04.988Z,4.37
2023-04-12T01:47:07.030Z,6.85
2023-04-12T01:50:17.288Z,5.43
2023-04-12T01:53:22.702Z,7.40
2023-04-12T01:56:25.511Z,5.95
2023-04-12T01:59:28.615Z,5.35
2023-04-12T02:02:31.082Z,4.18
2023-04-12T02:05:35.704Z,5.43
2023-04-12T02:08:38.319Z,4.32
2023-04-12T02:11:40.344Z,5.00
2023-04-12T02:14:45.832Z,8.13
2023-04-12T02:17:47.829Z,8.00
2023-04-12T02:20:50.944Z,6.45
2023-04-12T02:23:52.884Z,6.60
2023-04-12T02:29:58.671Z,7.00
2023-04-12T02:33:02.610Z,7.10
2023-04-12T02:36:10.277Z,6.73
2023-04-12T02:39:12.568Z,5.63
2023-04-12T02:42:14.730Z,5.03
2023-04-12T02:45:17.418Z,6.63
2023-04-12T02:48:20.060Z,7.03
2023-04-12T02:51:22.652Z,5.22
2023-04-12T02:54:27.150Z,5.68
2023-04-12T02:57:31.165Z,8.00
2023-04-12T03:00:33.858Z,7.50
2023-04-12T03:03:37.105Z,6.28
2023-04-12T03:06:53.856Z,6.47
2023-04-12T03:10:07.498Z,6.30
2023-04-12T03:13:14.221Z,5.90
2023-04-12T03:16:23.584Z,6.90
2023-04-12T03:19:33.102Z,6.90
2023-04-12T03:22:36.622Z,5.15
2023-04-12T03:25:42.536Z,5.75
2023-04-12T03:29:05.644Z,7.90
2023-04-12T03:32:09.832Z,6.15
2023-04-12T03:35:12.166Z,6.65
2023-04-12T03:38:16.729Z,6.73
2023-04-12T03:41:21.620Z,6.07
2023-04-12T03:44:26.235Z,6.60
2023-04-12T03:47:30.775Z,7.30
2023-04-12T03:50:42.073Z,6.32
2023-04-12T03:53:44.649Z,7.05
2023-04-12T03:56:50.319Z,7.15
2023-04-12T04:00:00.264Z,7.43
2023-04-12T04:03:09.844Z,8.73
2023-04-12T04:06:29.905Z,8.35
2023-04-12T04:09:32.931Z,6.83
2023-04-12T04:12:35.033Z,6.63
2023-04-12T04:15:37.812Z,8.25
2023-04-12T04:18:40.762Z,6.10
2023-04-12T04:21:45.713Z,7.78
2023-04-12T04:24:48.414Z,5.50
2023-04-12T04:27:51.121Z,6.40
2023-04-12T04:30:55.858Z,6.03
2023-04-12T04:33:59.275Z,5.95
2023-04-12T04:37:06.500Z,4.60
2023-04-12T04:40:09.477Z,6.37
2023-04-12T04:43:14.031Z,5.97
2023-04-12T04:46:22.046Z,6.07
2023-04-12T04:49:24.481Z,6.43
2023-04-12T04:52:27.010Z,7.43
2023-04-12T04:55:34.629Z,4.80
2023-04-12T04:58:36.752Z,5.65
2023-04-12T05:01:41.302Z,5.68
2023-04-12T05:04:45.065Z,5.28
2023-04-12T05:07:50.277Z,9.77
2023-04-12T05:10:53.468Z,3.87
2023-04-12T05:13:58.183Z,5.70
2023-04-12T05:17:00.581Z,5.53
2023-04-12T05:20:06.534Z,4.87
2023-04-12T05:23:09.114Z,4.80
2023-04-12T05:26:11.676Z,5.57
2023-04-12T05:29:15.919Z,6.55
2023-04-12T05:32:19.375Z,6.05
2023-04-12T05:35:22.323Z,7.35
2023-04-12T05:38:27.424Z,4.57
2023-04-12T05:41:32.556Z,6.03
2023-04-12T05:44:34.905Z,3.78
2023-04-12T05:47:37.900Z,4.65
2023-04-12T05:50:40.186Z,4.93
2023-04-12T05:53:42.845Z,5.85
2023-04-12T05:56:46.006Z,4.65
2023-04-12T05:59:48.522Z,4.25
2023-04-12T06:02:52.387Z,4.88
2023-04-12T06:05:57.795Z,4.28
2023-04-12T06:09:03.173Z,5.93
2023-04-12T06:12:06.230Z,3.60
2023-04-12T06:15:11.299Z,4.78
2023-04-12T06:18:13.790Z,3.28
2023-04-12T06:21:16.604Z,5.57
2023-04-12T06:24:19.224Z,3.17
2023-04-12T06:27:23.082Z,3.92
2023-04-12T06:30:25.489Z,3.58
2023-04-12T06:33:33.072Z,5.47
2023-04-12T06:36:35.511Z,4.30
2023-04-12T06:39:37.764Z,4.50
2023-04-12T06:42:39.917Z,4.43
2023-04-12T06:45:42.340Z,3.97
2023-04-12T06:48:45.000Z,3.58
2023-04-12T06:51:47.619Z,3.22
2023-04-12T06:54:49.809Z,3.57
2023-04-12T06:57:52.237Z,5.67
2023-04-12T07:00:55.099Z,6.05
2023-04-12T07:03:57.953Z,4.50
2023-04-12T07:07:00.513Z,5.65
2023-04-12T07:10:04.462Z,5.77
2023-04-12T07:13:08.533Z,4.72
2023-04-12T07:16:10.903Z,4.88
2023-04-12T07:19:14.148Z,6.05
2023-04-12T07:22:16.738Z,3.97
2023-04-12T07:25:18.905Z,3.83
2023-04-12T07:28:21.192Z,4.35
2023-04-12T07:31:24.157Z,3.03
2023-04-12T07:34:26.724Z,4.10
2023-04-12T07:37:29.922Z,5.67
2023-04-12T07:40:32.610Z,5.22
2023-04-12T07:43:35.009Z,5.30
2023-04-12T07:46:37.191Z,6.03
2023-04-12T07:49:39.668Z,5.67
2023-04-12T07:52:42.163Z,5.13
2023-04-12T07:55:46.844Z,4.10
2023-04-12T07:58:49.410Z,5.30
2023-04-12T08:01:51.714Z,4.30
2023-04-12T08:04:53.820Z,3.97
2023-04-12T08:07:56.193Z,4.20
2023-04-12T08:10:58.394Z,4.93
2023-04-12T08:14:00.853Z,3.58
2023-04-12T08:17:02.975Z,4.57
2023-04-12T08:20:05.547Z,3.80
2023-04-12T08:23:08.258Z,4.60
2023-04-12T08:26:10.337Z,3.55
2023-04-12T08:29:20.644Z,4.18
2023-04-12T08:32:26.581Z,6.93
2023-04-12T08:35:28.820Z,4.70
2023-04-12T08:38:44.760Z,3.83
2023-04-12T08:41:47.990Z,4.20
2023-04-12T08:44:51.393Z,3.88
2023-04-12T08:47:53.576Z,3.87
2023-04-12T08:50:58.854Z,3.45
2023-04-12T08:54:00.934Z,4.63
2023-04-12T08:57:04.956Z,3.75
2023-04-12T09:00:08.372Z,3.25
2023-04-12T09:03:11.513Z,5.50
2023-04-12T09:06:14.436Z,4.63
2023-04-12T09:09:17.141Z,3.53
2023-04-12T09:12:24.457Z,3.42
2023-04-12T09:15:26.758Z,5.38
2023-04-12T09:18:29.438Z,4.47
2023-04-12T09:21:37.753Z,4.15
2023-04-12T09:24:46.660Z,4.60
2023-04-12T09:27:49.750Z,4.25
2023-04-12T09:30:52.316Z,3.63
2023-04-12T09:33:55.247Z,3.17
2023-04-12T09:36:57.936Z,3.40
2023-04-12T09:40:04.613Z,2.53
2023-04-12T09:43:06.753Z,3.72
2023-04-12T09:46:15.495Z,3.28
2023-04-12T09:49:17.969Z,3.60
2023-04-12T09:52:20.410Z,3.30
2023-04-12T09:55:23.604Z,2.50
2023-04-12T09:58:25.895Z,3.70
2023-04-12T10:01:28.494Z,2.60
2023-04-12T10:04:31.813Z,4.47
2023-04-12T10:07:37.883Z,3.22
2023-04-12T10:10:40.076Z,3.35
2023-04-12T10:13:42.500Z,2.33
2023-04-12T10:16:44.623Z,3.30
2023-04-12T10:19:47.776Z,4.87
2023-04-12T10:22:50.398Z,9.02
2023-04-12T10:25:55.724Z,3.78
2023-04-12T10:29:16.563Z,2.72
2023-04-12T10:32:22.942Z,3.40
2023-04-12T10:35:25.434Z,3.37
2023-04-12T10:38:33.020Z,2.20
2023-04-12T10:41:37.628Z,3.63
2023-04-12T10:44:40.124Z,3.40
2023-04-12T10:47:48.602Z,2.53
2023-04-12T10:50:51.111Z,4.07
2023-04-12T10:53:53.525Z,3.13
2023-04-12T10:56:59.943Z,2.85
2023-04-12T11:00:11.336Z,3.88
2023-04-12T11:03:13.587Z,3.20
2023-04-12T11:06:26.971Z,2.57
2023-04-12T11:09:50.974Z,4.40
2023-04-12T11:13:00.641Z,3.25
2023-04-12T11:16:06.305Z,3.97
2023-04-12T11:19:08.755Z,3.50
2023-04-12T11:22:11.941Z,2.87
2023-04-12T11:25:16.717Z,2.65
2023-04-12T11:28:28.484Z,3.22
2023-04-12T11:31:33.093Z,3.22
2023-04-12T11:34:36.015Z,4.53
2023-04-12T11:37:38.979Z,2.80
2023-04-12T11:40:41.789Z,3.67
2023-04-12T11:43:44.656Z,3.08
2023-04-12T11:46:46.788Z,3.38
2023-04-12T11:49:51.089Z,3.10
2023-04-12T11:52:54.307Z,4.23
2023-04-12T11:55:57.688Z,3.75
2023-04-12T11:59:04.974Z,3.25
2023-04-12T12:02:21.289Z,3.28
2023-04-12T12:05:24.836Z,2.85
2023-04-12T12:08:27.928Z,3.63
2023-04-12T12:11:31.423Z,3.70
2023-04-12T12:14:34.004Z,3.33
2023-04-12T12:17:36.732Z,3.97
2023-04-12T12:20:42.575Z,3.58
2023-04-12T12:23:45.611Z,3.57
2023-04-12T12:26:49.261Z,3.92
2023-04-12T12:29:53.258Z,3.78
2023-04-12T12:32:56.480Z,2.85
2023-04-12T12:35:58.726Z,3.03
2023-04-12T12:39:18.982Z,3.33
2023-04-12T12:42:21.354Z,5.55
2023-04-12T12:45:24.093Z,2.80
2023-04-12T12:48:26.192Z,3.22
2023-04-12T12:51:28.571Z,4.45
2023-04-12T12:54:40.544Z,2.93
2023-04-12T12:57:49.649Z,20.33
2023-04-12T13:00:57.954Z,8.40
2023-04-12T13:04:00.547Z,3.85
2023-04-12T13:07:02.971Z,3.80
2023-04-12T13:10:05.625Z,3.03
2023-04-12T13:13:08.101Z,3.53
2023-04-12T13:16:11.039Z,3.13
2023-04-12T13:19:13.850Z,4.35
2023-04-12T13:22:16.684Z,4.32
2023-04-12T13:25:21.810Z,5.23
2023-04-12T13:28:24.097Z,2.63
2023-04-12T13:31:26.503Z,3.40
2023-04-12T13:34:28.569Z,4.95
2023-04-12T13:37:31.304Z,5.40
2023-04-12T13:40:33.451Z,3.77
2023-04-12T13:43:35.581Z,4.82
2023-04-12T13:46:37.635Z,5.70
2023-04-12T13:49:39.766Z,3.13
2023-04-12T13:52:42.411Z,2.70
2023-04-12T13:55:46.373Z,2.40
2023-04-12T13:58:48.587Z,3.70
2023-04-12T14:01:51.071Z,4.00
2023-04-12T14:04:53.668Z,4.80
2023-04-12T14:07:55.979Z,3.45
2023-04-12T14:10:58.217Z,3.60
2023-04-12T14:14:01.019Z,2.97
2023-04-12T14:17:03.631Z,2.70
2023-04-12T14:20:09.077Z,3.38
2023-04-12T14:23:11.460Z,2.92
2023-04-12T14:26:15.894Z,4.07
2023-04-12T14:29:18.079Z,4.93
2023-04-12T14:32:20.508Z,4.45
2023-04-12T14:35:23.051Z,2.92
2023-04-12T14:38:25.043Z,3.60
2023-04-12T14:41:27.251Z,2.40
2023-04-12T14:44:29.192Z,3.30
2023-04-12T14:47:32.094Z,3.50
2023-04-12T14:50:34.681Z,2.80
2023-04-12T14:53:37.406Z,4.05
2023-04-12T14:56:45.310Z,2.80
2023-04-12T14:59:52.261Z,3.60
2023-04-12T15:02:55.230Z,2.83
2023-04-12T15:05:59.270Z,2.08
2023-04-12T15:09:06.507Z,6.07
2023-04-12T15:12:09.429Z,2.43
2023-04-12T15:15:16.161Z,2.17
2023-04-12T15:18:18.900Z,2.40
2023-04-12T15:21:22.997Z,1.80
2023-04-12T15:24:25.170Z,3.80
2023-04-12T15:27:27.187Z,2.50
2023-04-12T15:30:29.466Z,2.50
2023-04-12T15:33:34.784Z,2.30
2023-04-12T15:36:37.005Z,3.38
2023-04-12T15:39:40.257Z,2.72
2023-04-12T15:42:58.104Z,2.43
2023-04-12T15:46:03.662Z,2.03
2023-04-12T15:49:06.600Z,2.25
2023-04-12T15:52:09.184Z,2.85
2023-04-12T15:55:12.196Z,3.50
2023-04-12T15:58:14.725Z,4.17
2023-04-12T16:01:17.569Z,2.70
2023-04-12T16:04:19.998Z,4.72
2023-04-12T16:07:22.251Z,3.90
2023-04-12T16:10:24.834Z,3.72
2023-04-12T16:13:27.502Z,4.03
2023-04-12T16:16:29.798Z,3.50
2023-04-12T16:19:32.604Z,2.53
2023-04-12T16:22:34.731Z,2.28
2023-04-12T16:25:37.020Z,2.72
2023-04-12T16:28:39.436Z,4.57
2023-04-12T16:31:42.367Z,3.60
2023-04-12T16:34:44.872Z,5.18
2023-04-12T16:38:15.811Z,3.67
2023-04-12T16:41:20.496Z,3.53
2023-04-12T16:44:22.631Z,2.43
2023-04-12T16:47:25.348Z,3.75
2023-04-12T16:50:28.987Z,1.75
2023-04-12T16:53:31.154Z,3.60
2023-04-12T16:56:33.549Z,4.65
2023-04-12T16:59:35.711Z,4.70
2023-04-12T17:02:38.504Z,5.65
2023-04-12T17:05:40.899Z,39.08
2023-04-12T17:08:45.039Z,10.98
2023-04-12T17:11:47.370Z,7.13
2023-04-12T17:14:51.264Z,8.43
2023-04-12T17:17:55.561Z,5.47
2023-04-12T17:20:59.104Z,6.70
2023-04-12T17:24:01.305Z,9.43
2023-04-12T17:27:04.217Z,5.30
2023-04-12T17:30:10.893Z,8.60
2023-04-12T17:33:12.925Z,7.88
2023-04-12T17:36:14.928Z,9.73
2023-04-12T17:39:17.334Z,19.17
2023-04-12T17:42:19.938Z,11.23
2023-04-12T17:45:23.614Z,11.00
2023-04-12T17:48:26.143Z,11.02
2023-04-12T17:51:29.319Z,9.82
2023-04-12T17:54:31.808Z,12.20
2023-04-12T17:57:34.336Z,9.52
2023-04-12T18:00:36.926Z,11.50
2023-04-12T18:03:39.128Z,11.85
2023-04-12T18:06:42.204Z,10.02
2023-04-12T18:09:45.251Z,8.20
2023-04-12T18:12:54.081Z,21.17
2023-04-12T18:15:56.573Z,17.33
2023-04-12T18:18:59.213Z,16.42
2023-04-12T18:22:01.791Z,16.00
2023-04-12T18:25:04.272Z,38.75
2023-04-12T18:28:07.008Z,130.13
2023-04-12T18:31:09.478Z,75.60
2023-04-12T18:34:11.467Z,56.25
2023-04-12T18:37:13.448Z,40.13
2023-04-12T18:40:16.128Z,44.40
2023-04-12T18:43:18.244Z,38.88
2023-04-12T18:46:20.648Z,32.43
2023-04-12T18:49:22.890Z,32.45
2023-04-12T18:52:25.385Z,23.58
2023-04-12T18:55:27.551Z,28.85
2023-04-12T18:58:41.549Z,24.65
2023-04-12T19:01:51.847Z,23.43
2023-04-12T19:04:53.936Z,27.90
2023-04-12T19:07:56.540Z,28.42
2023-04-12T19:10:58.742Z,26.73
2023-04-12T19:14:00.841Z,24.00
2023-04-12T19:17:02.983Z,26.00
2023-04-12T19:20:06.351Z,24.67
2023-04-12T19:23:08.490Z,22.55
2023-04-12T19:26:11.538Z,20.30
2023-04-12T19:29:16.865Z,19.47
2023-04-12T19:32:19.242Z,24.02
2023-04-12T19:35:21.327Z,23.02
2023-04-12T19:38:23.742Z,25.87
2023-04-12T19:41:26.408Z,24.55
2023-04-12T19:44:28.544Z,20.83
2023-04-12T19:47:30.743Z,19.70
2023-04-12T19:50:34.704Z,19.10
2023-04-12T19:53:36.940Z,18.15
2023-04-12T19:56:39.458Z,23.20
2023-04-12T19:59:41.474Z,22.77
2023-04-12T20:02:44.362Z,22.50
2023-04-12T20:05:47.550Z,22.83
2023-04-12T20:08:49.816Z,20.80
2023-04-12T20:11:51.829Z,21.73
2023-04-12T20:14:54.596Z,19.43
2023-04-12T20:17:57.008Z,21.77
2023-04-12T20:20:59.281Z,18.60
2023-04-12T20:24:01.977Z,16.40
2023-04-12T20:27:04.566Z,19.20
2023-04-12T20:30:08.935Z,21.73
2023-04-12T20:33:12.306Z,18.92
2023-04-12T20:36:15.861Z,18.63
2023-04-12T20:39:18.350Z,14.52
2023-04-12T20:42:22.842Z,18.00
2023-04-12T20:45:25.347Z,14.05
2023-04-12T20:48:27.345Z,11.13
2023-04-12T20:51:29.489Z,10.88
2023-04-12T20:54:33.918Z,14.50
2023-04-12T20:57:36.124Z,13.33
2023-04-12T21:00:38.807Z,12.68
2023-04-12T21:03:41.700Z,11.65
2023-04-12T21:06:45.193Z,10.98
2023-04-12T21:09:48.262Z,13.05
2023-04-12T21:12:51.759Z,13.90
2023-04-12T21:15:54.456Z,15.35
2023-04-12T21:18:56.654Z,11.87
2023-04-12T21:21:59.119Z,12.00
2023-04-12T21:25:01.520Z,14.90
2023-04-12T21:28:03.827Z,15.75
2023-04-12T21:31:06.711Z,17.05
2023-04-12T21:34:09.241Z,14.73
2023-04-12T21:37:11.332Z,17.70
2023-04-12T21:40:13.579Z,16.27
2023-04-12T21:43:15.609Z,14.35
2023-04-12T21:46:17.777Z,17.95
2023-04-12T21:49:19.783Z,15.60
2023-04-12T21:52:22.085Z,16.15
2023-04-12T21:55:24.223Z,18.80
2023-04-12T21:58:29.901Z,16.30
2023-04-12T22:01:33.305Z,14.77
2023-04-12T22:04:35.974Z,18.88
2023-04-12T22:07:41.358Z,22.33
2023-04-12T22:10:43.715Z,15.53
2023-04-12T22:13:46.149Z,17.23
2023-04-12T22:16:49.828Z,17.45
2023-04-12T22:19:55.003Z,15.83
2023-04-12T22:22:57.437Z,16.02
2023-04-12T22:25:59.383Z,15.70
2023-04-12T22:29:01.361Z,16.08
2023-04-12T22:32:03.647Z,12.35
2023-04-12T22:35:08.714Z,12.95
2023-04-12T22:38:13.891Z,13.63
2023-04-12T22:41:16.796Z,13.37
2023-04-12T22:44:22.408Z,11.95
2023-04-12T22:47:26.412Z,14.70
2023-04-12T22:50:28.988Z,13.37
2023-04-12T22:53:31.573Z,12.30
2023-04-12T22:56:34.541Z,11.85
2023-04-12T22:59:36.675Z,11.80
2023-04-12T23:02:39.217Z,12.23
2023-04-12T23:05:44.916Z,13.70
2023-04-12T23:08:46.848Z,13.85
2023-04-12T23:11:49.259Z,12.47
2023-04-12T23:14:55.500Z,13.93
2023-04-12T23:18:04.490Z,16.10
2023-04-12T23:21:06.701Z,14.83
2023-04-12T23:24:11.570Z,12.38
2023-04-12T23:27:15.676Z,12.75
2023-04-12T23:30:18.503Z,12.20
2023-04-12T23:33:21.449Z,10.02
2023-04-12T23:36:25.775Z,10.73
2023-04-12T23:39:28.452Z,11.05
2023-04-12T23:42:30.928Z,12.97
2023-04-12T23:45:33.248Z,13.65
2023-04-12T23:48:35.275Z,11.95
2023-04-12T23:51:37.266Z,15.68
2023-04-12T23:54:39.342Z,13.57
2023-04-12T23:57:42.277Z,13.00
